Map

Track Data

SID SEASON NUMBER BASIN SUBBASIN NAME ISO_TIME NATURE LAT LON WMO_WIND WMO_PRES WMO_AGENCY TRACK_TYPE DIST2LAND LANDFALL IFLAG USA_AGENCY USA_ATCF_ID USA_LAT USA_LON USA_RECORD USA_STATUS USA_WIND USA_PRES USA_SSHS USA_R34_NE USA_R34_SE USA_R34_SW USA_R34_NW USA_R50_NE USA_R50_SE USA_R50_SW USA_R50_NW USA_R64_NE USA_R64_SE USA_R64_SW USA_R64_NW USA_POCI USA_ROCI USA_RMW USA_EYE TOKYO_LAT TOKYO_LON TOKYO_GRADE TOKYO_WIND TOKYO_PRES TOKYO_R50_DIR TOKYO_R50_LONG TOKYO_R50_SHORT TOKYO_R30_DIR TOKYO_R30_LONG TOKYO_R30_SHORT TOKYO_LAND CMA_LAT CMA_LON CMA_CAT CMA_WIND CMA_PRES HKO_LAT HKO_LON HKO_CAT HKO_WIND HKO_PRES NEWDELHI_LAT NEWDELHI_LON NEWDELHI_GRADE NEWDELHI_WIND NEWDELHI_PRES NEWDELHI_CI NEWDELHI_DP NEWDELHI_POCI REUNION_LAT REUNION_LON REUNION_TYPE REUNION_WIND REUNION_PRES REUNION_TNUM REUNION_CI REUNION_RMW REUNION_R34_NE REUNION_R34_SE REUNION_R34_SW REUNION_R34_NW REUNION_R50_NE REUNION_R50_SE REUNION_R50_SW REUNION_R50_NW REUNION_R64_NE REUNION_R64_SE REUNION_R64_SW REUNION_R64_NW BOM_LAT BOM_LON BOM_TYPE BOM_WIND BOM_PRES BOM_TNUM BOM_CI BOM_RMW BOM_R34_NE BOM_R34_SE BOM_R34_SW BOM_R34_NW BOM_R50_NE BOM_R50_SE BOM_R50_SW BOM_R50_NW BOM_R64_NE BOM_R64_SE BOM_R64_SW BOM_R64_NW BOM_ROCI BOM_POCI BOM_EYE BOM_POS_METHOD BOM_PRES_METHOD NADI_LAT NADI_LON NADI_CAT NADI_WIND NADI_PRES WELLINGTON_LAT WELLINGTON_LON WELLINGTON_WIND WELLINGTON_PRES DS824_LAT DS824_LON DS824_STAGE DS824_WIND DS824_PRES TD9636_LAT TD9636_LON TD9636_STAGE TD9636_WIND TD9636_PRES TD9635_LAT TD9635_LON TD9635_WIND TD9635_PRES TD9635_ROCI NEUMANN_LAT NEUMANN_LON NEUMANN_CLASS NEUMANN_WIND NEUMANN_PRES MLC_LAT MLC_LON MLC_CLASS MLC_WIND MLC_PRES USA_GUST BOM_GUST BOM_GUST_PER REUNION_GUST REUNION_GUST_PER USA_SEAHGT USA_SEARAD_NE USA_SEARAD_SE USA_SEARAD_SW USA_SEARAD_NW STORM_SPEED STORM_DIR
1903309N09135 1903 60 WP MM NOT_NAMED 1903-11-04 16:00:00 NR 9.40000 135.400 main 986 820 __________O___ -1 9.40000 135.400 7 49 278
1903309N09135 1903 60 WP MM NOT_NAMED 1903-11-04 18:00:00 NR 9.61296 133.762 main 820 573 __________P___ -1 9.61296 133.762 7 48 277
1903309N09135 1903 60 WP MM NOT_NAMED 1903-11-04 21:00:00 NR 9.91319 131.406 main 573 358 __________P___ -1 9.91319 131.406 7 44 277
1903309N09135 1903 60 WP MM NOT_NAMED 1903-11-05 00:00:00 NR 10.1849 129.330 main 358 211 __________P___ -1 10.1849 129.330 7 37 278
1903309N09135 1903 60 WP MM NOT_NAMED 1903-11-05 03:00:00 NR 10.4262 127.710 main 211 183 __________P___ -1 10.4262 127.710 7 30 279
1903309N09135 1903 60 WP MM NOT_NAMED 1903-11-05 04:00:00 NR 10.5000 127.300 main 173 108 __________O___ -1 10.5000 127.300 3 20 282
1903309N09135 1903 60 WP MM NOT_NAMED 1903-11-05 06:00:00 NR 10.6388 126.695 main 108 49 __________P___ -1 10.6388 126.695 3 13 287
1903309N09135 1903 60 WP MM NOT_NAMED 1903-11-05 09:00:00 NR 10.8342 126.217 main 49 32 __________P___ -1 10.8342 126.217 3 7 302
1903309N09135 1903 60 WP MM NOT_NAMED 1903-11-05 12:00:00 NR 11.0267 126.064 main 32 24 __________P___ -1 11.0267 126.064 3 4 334
1903309N09135 1903 60 WP MM NOT_NAMED 1903-11-05 15:00:00 NR 11.2286 126.025 main 31 31 __________P___ -1 11.2286 126.025 3 4 345
1903309N09135 1903 60 WP MM NOT_NAMED 1903-11-05 16:00:00 NR 11.3000 126.000 main 39 21 __________O___ -1 11.3000 126.000 4 7 312
1903309N09135 1903 60 WP MM NOT_NAMED 1903-11-05 18:00:00 NR 11.4526 125.773 main 24 0 __________P___ -1 11.4526 125.773 4 8 305
1903309N09135 1903 60 WP MM NOT_NAMED 1903-11-05 21:00:00 NR 11.6941 125.432 main 0 0 __________P___ -1 11.6941 125.432 4 8 307
1903309N09135 1903 60 WP MM NOT_NAMED 1903-11-06 00:00:00 NR 11.9479 125.102 main 0 0 __________P___ -1 11.9479 125.102 4 8 310
1903309N09135 1903 60 WP MM NOT_NAMED 1903-11-06 03:00:00 NR 12.2109 124.795 main 0 0 __________P___ -1 12.2109 124.795 4 8 312
1903309N09135 1903 60 WP MM NOT_NAMED 1903-11-06 04:00:00 NR 12.3000 124.700 main 0 0 __________O___ -1 12.3000 124.700 4 8 314
1903309N09135 1903 60 WP MM NOT_NAMED 1903-11-06 06:00:00 NR 12.4749 124.517 main 0 0 __________P___ -1 12.4749 124.517 4 7 316
1903309N09135 1903 60 WP MM NOT_NAMED 1903-11-06 09:00:00 NR 12.7436 124.267 main 21 0 __________P___ -1 12.7436 124.267 4 7 320
1903309N09135 1903 60 WP MM NOT_NAMED 1903-11-06 12:00:00 NR 13.0199 124.047 main 0 0 __________P___ -1 13.0199 124.047 4 7 325
1903309N09135 1903 60 WP MM NOT_NAMED 1903-11-06 15:00:00 NR 13.3037 123.857 main 10 0 __________P___ -1 13.3037 123.857 4 7 328
1903309N09135 1903 60 WP MM NOT_NAMED 1903-11-06 16:00:00 NR 13.4000 123.800 main 10 10 __________O___ -1 13.4000 123.800 4 7 332
1903309N09135 1903 60 WP MM NOT_NAMED 1903-11-06 18:00:00 NR 13.6047 123.694 main 11 0 __________P___ -1 13.6047 123.694 4 7 336
1903309N09135 1903 60 WP MM NOT_NAMED 1903-11-06 21:00:00 NR 13.9183 123.560 main 0 0 __________P___ -1 13.9183 123.560 4 7 339
1903309N09135 1903 60 WP MM NOT_NAMED 1903-11-07 00:00:00 NR 14.2261 123.445 main 24 24 __________P___ -1 14.2261 123.445 4 6 340
1903309N09135 1903 60 WP MM NOT_NAMED 1903-11-07 03:00:00 NR 14.5121 123.337 main 54 54 __________P___ -1 14.5121 123.337 4 6 339
1903309N09135 1903 60 WP MM NOT_NAMED 1903-11-07 04:00:00 NR 14.6000 123.300 main 62 62 __________O___ -1 14.6000 123.300 4 5 333
1903309N09135 1903 60 WP MM NOT_NAMED 1903-11-07 06:00:00 NR 14.7536 123.206 main 74 70 __________P___ -1 14.7536 123.206 4 5 328
1903309N09135 1903 60 WP MM NOT_NAMED 1903-11-07 09:00:00 NR 14.9586 123.065 main 92 90 __________P___ -1 14.9586 123.065 4 5 326
1903309N09135 1903 60 WP MM NOT_NAMED 1903-11-07 12:00:00 NR 15.1472 122.935 main 100 111 __________P___ -1 15.1472 122.935 4 4 329
1903309N09135 1903 60 WP MM NOT_NAMED 1903-11-07 15:00:00 NR 15.3349 122.828 main 116 108 __________P___ -1 15.3349 122.828 4 4 332
1903309N09135 1903 60 WP MM NOT_NAMED 1903-11-07 16:00:00 NR 15.4000 122.800 main 108 100 __________O___ -1 15.4000 122.800 4 4 342
1903309N09135 1903 60 WP MM NOT_NAMED 1903-11-07 18:00:00 NR 15.5443 122.760 main 100 69 __________P___ -1 15.5443 122.760 4 5 349
1903309N09135 1903 60 WP MM NOT_NAMED 1903-11-07 21:00:00 NR 15.7670 122.726 main 69 57 __________P___ -1 15.7670 122.726 4 5 354
1903309N09135 1903 60 WP MM NOT_NAMED 1903-11-08 00:00:00 NR 15.9945 122.711 main 57 53 __________P___ -1 15.9945 122.711 4 5 0
1903309N09135 1903 60 WP MM NOT_NAMED 1903-11-08 03:00:00 NR 16.2238 122.703 main 53 53 __________P___ -1 16.2238 122.703 4 5 355
1903309N09135 1903 60 WP MM NOT_NAMED 1903-11-08 04:00:00 NR 16.3000 122.700 main 53 48 __________O___ -1 16.3000 122.700 4 5 355
1903309N09135 1903 60 WP MM NOT_NAMED 1903-11-08 06:00:00 NR 16.4500 122.678 main 44 24 __________P___ -1 16.4500 122.678 4 5 351
1903309N09135 1903 60 WP MM NOT_NAMED 1903-11-08 09:00:00 NR 16.6750 122.645 main 24 10 __________P___ -1 16.6750 122.645 4 5 354
1903309N09135 1903 60 WP MM NOT_NAMED 1903-11-08 12:00:00 NR 16.9000 122.618 main 10 10 __________P___ -1 16.9000 122.618 4 5 356
1903309N09135 1903 60 WP MM NOT_NAMED 1903-11-08 15:00:00 NR 17.1250 122.602 main 15 15 __________P___ -1 17.1250 122.602 4 5 0
1903309N09135 1903 60 WP MM NOT_NAMED 1903-11-08 16:00:00 NR 17.2000 122.600 main 21 21 __________O___ -1 17.2000 122.600 4 5 6
1903309N09135 1903 60 WP MM NOT_NAMED 1903-11-08 18:00:00 NR 17.3579 122.605 main 24 24 __________P___ -1 17.3579 122.605 4 5 4
1903309N09135 1903 60 WP MM NOT_NAMED 1903-11-08 21:00:00 NR 17.5948 122.626 main 39 39 __________P___ -1 17.5948 122.626 4 5 6
1903309N09135 1903 60 WP MM NOT_NAMED 1903-11-09 00:00:00 NR 17.8237 122.656 main 62 53 __________P___ -1 17.8237 122.656 4 4 8
1903309N09135 1903 60 WP MM NOT_NAMED 1903-11-09 03:00:00 NR 18.0351 122.689 main 53 47 __________P___ -1 18.0351 122.689 4 4 9
1903309N09135 1903 60 WP MM NOT_NAMED 1903-11-09 04:00:00 NR 18.1000 122.700 main 47 43 __________O___ -1 18.1000 122.700 4 4 2
1903309N09135 1903 60 WP MM NOT_NAMED 1903-11-09 06:00:00 NR 18.2119 122.709 main 43 42 __________P___ -1 18.2119 122.709 4 3 0
1903309N09135 1903 60 WP MM NOT_NAMED 1903-11-09 09:00:00 NR 18.3606 122.722 main 42 42 __________P___ -1 18.3606 122.722 4 3 7
1903309N09135 1903 60 WP MM NOT_NAMED 1903-11-09 12:00:00 NR 18.5005 122.743 main 43 43 __________P___ -1 18.5005 122.743 4 3 10
1903309N09135 1903 60 WP MM NOT_NAMED 1903-11-09 15:00:00 NR 18.6470 122.782 main 57 62 __________P___ -1 18.6470 122.782 4 3 14
1903309N09135 1903 60 WP MM NOT_NAMED 1903-11-09 16:00:00 NR 18.7000 122.800 main 62 62 __________O___ -1 18.7000 122.800 4 4 19
1903309N09135 1903 60 WP MM NOT_NAMED 1903-11-09 18:00:00 NR 18.8147 122.846 main 69 77 __________P___ -1 18.8147 122.846 4 4 24
1903309N09135 1903 60 WP MM NOT_NAMED 1903-11-09 21:00:00 NR 19.0052 122.936 main 92 92 __________P___ -1 19.0052 122.936 4 4 25
1903309N09135 1903 60 WP MM NOT_NAMED 1903-11-10 00:00:00 NR 19.2117 123.043 main 115 115 __________P___ -1 19.2117 123.043 4 5 27
1903309N09135 1903 60 WP MM NOT_NAMED 1903-11-10 03:00:00 NR 19.4273 123.160 main 146 146 __________P___ -1 19.4273 123.160 4 5 27
1903309N09135 1903 60 WP MM NOT_NAMED 1903-11-10 04:00:00 NR 19.5000 123.200 main 155 __________O___ -1 19.5000 123.200 4 5 23

Digital Typhoon Data and Search

About IBTrACS Database

This database is a web-friendly format of International Best Track Archive for Climate Stewardship (IBTrACS), a global best track data archive curated by NOAA dating back to 1842.

Updated: 2021-11-26